Time;durP1;ratioP1;P1;durP2;ratioP2;P2;SDS_P1;SDS_P2;PMS_P1;PMS_P2;Temp;Humidity;BMP_temperature;BMP_pressure;BME280_temperature;BME280_humidity;BME280_pressure;Samples;Min_cycle;Max_cycle;Signal;HPM_P1;HPM_P2
2021/09/29 06:21:15;;;;;;;3.88;2.80;;;11.60;98.60;;;;;;4852493;29;20077;-94
2021/09/29 06:24:09;;;;;;;3.00;2.47;;;11.70;98.10;;;;;;4871500;29;20042;-95
2021/09/29 06:26:45;;;;;;;3.83;2.83;;;11.80;98.00;;;;;;4935998;29;20028;-94
2021/09/29 06:33:04;;;;;;;;;;;;;;;;;;;;;
2021/09/29 06:35:41;;;;;;;7.40;3.40;;;12.40;97.60;;;;;;4939781;29;20130;-94
2021/09/29 06:38:10;;;;;;;6.82;3.83;;;12.70;97.10;;;;;;4939144;29;20032;-94
2021/09/29 06:40:41;;;;;;;4.03;3.15;;;12.70;95.80;;;;;;4939769;29;20511;-94
2021/09/29 06:43:30;;;;;;;5.55;3.40;;;12.70;95.70;;;;;;4924859;29;20031;-95
2021/09/29 06:46:33;;;;;;;5.25;3.70;;;12.70;95.80;;;;;;4939933;29;20031;-94
2021/09/29 06:49:24;;;;;;;4.25;2.70;;;12.80;95.40;;;;;;4940484;29;20035;-95
2021/09/29 06:51:55;;;;;;;3.55;2.72;;;12.80;95.40;;;;;;4939710;29;20040;-95
2021/09/29 06:54:23;;;;;;;4.55;2.58;;;12.90;95.70;;;;;;4939099;29;20059;-94
2021/09/29 06:57:11;;;;;;;4.40;2.70;;;13.00;95.50;;;;;;4941268;29;20039;-95
2021/09/29 06:59:37;;;;;;;3.97;3.05;;;13.10;95.10;;;;;;4924219;29;20047;-94
2021/09/29 07:02:13;;;;;;;4.57;3.20;;;13.10;94.70;;;;;;4939877;29;20126;-93
2021/09/29 07:04:48;;;;;;;3.78;2.85;;;13.10;94.50;;;;;;4940063;29;20085;-94
2021/09/29 07:07:19;;;;;;;4.30;2.92;;;13.10;94.70;;;;;;4940274;29;20123;-92
2021/09/29 07:10:04;;;;;;;3.55;2.70;;;13.10;94.60;;;;;;4940096;29;20031;-94
2021/09/29 07:12:57;;;;;;;3.88;2.88;;;13.10;94.50;;;;;;4938785;29;20093;-95
2021/09/29 07:16:05;;;;;;;6.65;2.95;;;13.00;94.30;;;;;;4923841;29;20122;-94
2021/09/29 07:18:28;;;;;;;6.55;3.20;;;12.90;94.20;;;;;;4938421;29;20451;-92
2021/09/29 07:21:01;;;;;;;4.32;3.20;;;12.80;94.30;;;;;;4939302;29;20043;-94
2021/09/29 07:23:37;;;;;;;6.70;3.15;;;12.80;94.50;;;;;;4942849;29;20043;-93
2021/09/29 07:26:25;;;;;;;4.50;3.53;;;12.80;94.60;;;;;;4923093;29;20036;-94
2021/09/29 07:28:53;;;;;;;4.32;3.38;;;12.90;94.30;;;;;;4939953;29;20167;-94
2021/09/29 07:31:22;;;;;;;4.57;3.40;;;12.90;94.50;;;;;;4947539;29;20175;-93
2021/09/29 07:34:23;;;;;;;4.10;3.45;;;12.90;94.30;;;;;;4938992;29;20074;-93
2021/09/29 07:36:57;;;;;;;6.45;3.42;;;13.00;94.10;;;;;;4938071;29;20069;-93
2021/09/29 07:40:16;;;;;;;5.47;3.33;;;13.00;94.20;;;;;;4959697;29;20042;-93
2021/09/29 07:47:16;;;;;;;;;;;;;;;;;;;;;
2021/09/29 07:51:19;;;;;;;;;;;;;;;;;;;;;
2021/09/29 07:53:25;;;;;;;3.70;2.88;;;13.00;94.00;;;;;;4817978;29;20033;-92
2021/09/29 08:03:42;;;;;;;4.72;3.17;;;13.00;93.20;;;;;;4745080;30;20123;-94
2021/09/29 08:06:24;;;;;;;;;;;;;;;;;;;;;
2021/09/29 08:12:35;;;;;;;;;;;;;;;;;;;;;
2021/09/29 08:16:03;;;;;;;4.80;3.33;;;13.00;93.00;;;;;;4903923;29;20049;-96
2021/09/29 08:18:32;;;;;;;4.95;3.70;;;13.10;93.20;;;;;;4882210;29;20053;-94
2021/09/29 08:21:18;;;;;;;4.72;3.58;;;13.10;93.10;;;;;;4899432;29;20033;-94
2021/09/29 08:27:15;;;;;;;;;;;13.10;93.00;;;;;;4872978;29;20036;-94
2021/09/29 08:38:15;;;;;;;3.50;2.90;;;13.20;93.20;;;;;;4901786;29;20032;-95
2021/09/29 08:44:39;;;;;;;3.80;3.38;;;13.30;91.80;;;;;;4901203;29;20112;-95
2021/09/29 08:48:01;;;;;;;3.78;2.97;;;13.30;92.40;;;;;;4902946;29;20036;-93
2021/09/29 12:40:11;;;;;;;4.00;2.80;;;13.70;80.60;;;;;;4158686;23;20025;-95
2021/09/29 12:42:51;;;;;;;;;;;;;;;;;;;;;
2021/09/29 12:45:27;;;;;;;4.78;3.10;;;13.60;80.50;;;;;;4953004;29;20119;-96
2021/09/29 12:48:29;;;;;;;3.30;3.00;;;13.50;80.30;;;;;;4934640;29;20107;-94
2021/09/29 12:55:40;;;;;;;3.63;2.70;;;13.40;79.80;;;;;;4901904;29;20037;-96
2021/09/29 12:58:45;;;;;;;5.13;3.20;;;13.40;80.20;;;;;;4882001;29;20036;-94
2021/09/29 13:01:18;;;;;;;3.33;2.33;;;13.30;80.60;;;;;;4882305;29;20044;-93
2021/09/29 13:03:49;;;;;;;2.63;2.30;;;13.30;81.00;;;;;;4898374;29;20423;-93
2021/09/29 13:06:15;;;;;;;3.33;2.25;;;13.40;81.30;;;;;;4897814;29;20033;-95
2021/09/29 13:09:15;;;;;;;4.63;2.67;;;13.40;80.90;;;;;;4911877;29;20046;-95
2021/09/29 13:12:35;;;;;;;;;;;;;;;;;;;;;
2021/09/29 13:15:03;;;;;;;3.88;2.50;;;13.40;80.80;;;;;;4880921;29;20077;-94
2021/09/29 13:17:45;;;;;;;3.15;2.55;;;13.40;81.20;;;;;;4882636;29;20112;-93
2021/09/29 13:20:33;;;;;;;2.70;2.13;;;13.40;81.20;;;;;;4883889;29;20036;-94
2021/09/29 13:23:25;;;;;;;2.90;2.35;;;13.30;81.00;;;;;;4900792;29;20071;-92
2021/09/29 13:26:38;;;;;;;3.38;2.55;;;13.30;80.80;;;;;;4899182;29;20063;-91
2021/09/29 13:38:39;;;;;;;3.22;2.28;;;13.20;80.30;;;;;;4937019;29;20043;-94
2021/09/29 13:41:19;;;;;;;4.78;3.05;;;13.20;80.70;;;;;;4954739;29;20126;-93
2021/09/29 13:44:06;;;;;;;3.17;2.33;;;13.30;80.50;;;;;;4955710;28;20118;-92
2021/09/29 13:47:33;;;;;;;;;;;;;;;;;;;;;
2021/09/29 15:48:47;;;;;;;8.70;2.95;;;11.90;79.80;;;;;;4941665;29;20134;-94
2021/09/29 15:51:36;;;;;;;;;;;;;;;;;;;;;
2021/09/29 16:47:13;;;;;;;7.25;3.33;;;11.30;84.30;;;;;;4919446;29;20056;-92
2021/09/29 16:53:08;;;;;;;5.35;4.18;;;11.20;85.20;;;;;;4923383;29;20042;-92
2021/09/29 16:55:50;;;;;;;5.50;3.47;;;11.20;85.70;;;;;;4892889;29;20051;-90
2021/09/29 17:01:39;;;;;;;3.47;3.17;;;11.10;87.50;;;;;;4930091;29;20096;-90
2021/09/29 17:04:12;;;;;;;9.00;4.18;;;11.00;87.00;;;;;;4889429;29;20134;-94
2021/09/29 17:10:37;;;;;;;6.60;3.75;;;10.90;87.00;;;;;;4842903;29;20041;-95
2021/09/29 17:13:13;;;;;;;;;;;;;;;;;;;;;
2021/09/29 17:15:42;;;;;;;6.00;3.90;;;10.90;87.50;;;;;;4905247;29;20046;-94
2021/09/29 17:18:09;;;;;;;5.82;3.95;;;10.80;87.50;;;;;;4909722;29;20055;-95
2021/09/29 17:20:52;;;;;;;6.82;4.28;;;10.80;87.80;;;;;;4914643;29;20101;-96
2021/09/29 17:24:23;;;;;;;7.72;4.35;;;10.70;88.20;;;;;;4911830;29;20036;-95
2021/09/29 17:27:24;;;;;;;5.97;3.92;;;10.70;88.60;;;;;;4852304;29;20049;-96
2021/09/29 17:30:15;;;;;;;;;;;;;;;;;;;;;
2021/09/29 17:39:02;;;;;;;7.60;4.72;;;10.40;90.00;;;;;;4928718;23;20059;-96
2021/09/29 19:16:49;;;;;;;11.07;5.03;;;9.00;94.50;;;;;;4885713;29;20036;-93
2021/09/29 19:22:16;;;;;;;;;;;;;;;;;;;;;
2021/09/29 19:24:43;;;;;;;9.13;4.60;;;9.00;94.60;;;;;;4874620;29;19972;-95
